createdAt,value
2023-02-16T00:00:49.578Z,98663.09
2023-02-16T00:03:23.606Z,98665.31
2023-02-16T00:05:53.016Z,98669.88
2023-02-16T00:24:39.104Z,98675.84
2023-02-16T00:27:25.768Z,98683.06
2023-02-16T00:29:54.911Z,98692.91
2023-02-16T00:32:23.814Z,98698.75
2023-02-16T00:34:53.070Z,98693.44
2023-02-16T00:37:23.583Z,98698.44
2023-02-16T00:39:52.558Z,98706.16
2023-02-16T00:42:25.284Z,98708.34
2023-02-16T00:44:54.985Z,98705.22
2023-02-16T00:47:40.190Z,98702.75
2023-02-16T00:54:08.622Z,98699.69
2023-02-16T00:56:39.778Z,98706.47
2023-02-16T00:59:13.367Z,98710.72
2023-02-16T01:01:44.846Z,98716.91
2023-02-16T01:04:27.349Z,98719.22
2023-02-16T01:07:15.232Z,98723.09
2023-02-16T01:10:03.056Z,98730.03
2023-02-16T01:12:33.791Z,98737.03
2023-02-16T01:15:03.992Z,98740.38
2023-02-16T01:17:34.318Z,98754.34
2023-02-16T01:20:05.134Z,98748.31
2023-02-16T01:22:36.755Z,98746.56
2023-02-16T01:25:09.946Z,98748.28
2023-02-16T01:27:40.788Z,98759.38
2023-02-16T01:30:23.012Z,98759.97
2023-02-16T01:32:53.315Z,98769.75
2023-02-16T01:35:36.070Z,98760.72
2023-02-16T01:38:06.663Z,98764.47
2023-02-16T01:40:36.666Z,98767.94
2023-02-16T01:43:28.141Z,98769.22
2023-02-16T01:46:03.792Z,98768.50
2023-02-16T01:48:34.617Z,98772.19
2023-02-16T01:51:17.707Z,98773.66
2023-02-16T01:53:57.083Z,98771.81
2023-02-16T01:56:43.990Z,98771.00
2023-02-16T01:59:46.280Z,98772.75
2023-02-16T02:02:25.871Z,98780.69
2023-02-16T02:05:20.136Z,98788.53
2023-02-16T02:08:19.960Z,98791.00
2023-02-16T02:11:17.819Z,98801.28
2023-02-16T02:14:10.838Z,98811.22
2023-02-16T02:16:41.981Z,98802.66
2023-02-16T02:19:13.194Z,98806.78
2023-02-16T02:22:22.861Z,98812.53
2023-02-16T02:25:05.250Z,98810.63
2023-02-16T02:27:55.540Z,98815.44
2023-02-16T02:30:28.977Z,98825.88
2023-02-16T02:33:04.918Z,98827.41
2023-02-16T02:35:51.790Z,98831.06
2023-02-16T02:38:32.631Z,98835.28
2023-02-16T02:41:45.487Z,98836.84
2023-02-16T02:44:19.164Z,98839.44
2023-02-16T02:46:49.707Z,98848.06
2023-02-16T02:49:21.560Z,98851.38
2023-02-16T02:51:53.045Z,98851.19
2023-02-16T02:54:41.103Z,98861.56
2023-02-16T02:57:44.606Z,98870.69
2023-02-16T03:00:45.381Z,98880.72
2023-02-16T03:03:34.066Z,98873.75
2023-02-16T03:06:21.934Z,98874.81
2023-02-16T03:09:00.224Z,98869.06
2023-02-16T03:11:49.004Z,98877.84
2023-02-16T03:14:44.865Z,98886.91
2023-02-16T03:17:42.911Z,98892.56
2023-02-16T03:20:35.015Z,98887.47
2023-02-16T03:23:25.505Z,98892.38
2023-02-16T03:26:14.237Z,98897.84
2023-02-16T03:29:04.649Z,98900.59
2023-02-16T03:31:40.072Z,98905.47
2023-02-16T03:34:11.035Z,98907.59
2023-02-16T03:36:45.459Z,98911.34
2023-02-16T03:39:15.477Z,98909.31
2023-02-16T03:41:52.643Z,98918.28
2023-02-16T03:44:23.670Z,98908.31
2023-02-16T03:46:53.965Z,98909.97
2023-02-16T03:49:23.879Z,98914.72
2023-02-16T03:51:53.675Z,98909.38
2023-02-16T03:54:23.581Z,98909.19
2023-02-16T03:56:53.737Z,98902.78
2023-02-16T03:59:23.588Z,98919.31
2023-02-16T04:01:53.797Z,98907.97
2023-02-16T04:04:24.166Z,98914.78
2023-02-16T04:06:54.573Z,98910.84
2023-02-16T04:09:24.549Z,98913.50
2023-02-16T04:12:12.490Z,98921.09
2023-02-16T04:14:43.771Z,98919.75
2023-02-16T04:17:14.292Z,98916.66
2023-02-16T04:19:44.248Z,98925.63
2023-02-16T04:22:14.202Z,98931.06
2023-02-16T04:24:44.713Z,98929.28
2023-02-16T04:27:14.781Z,98934.84
2023-02-16T04:29:44.969Z,98939.72
2023-02-16T04:32:15.903Z,98937.81
2023-02-16T04:34:46.078Z,98949.88
2023-02-16T04:37:16.267Z,98947.16
2023-02-16T04:39:46.620Z,98955.38
2023-02-16T04:42:17.156Z,98946.88
2023-02-16T04:44:47.179Z,98943.09
2023-02-16T04:47:17.713Z,98941.03
2023-02-16T04:49:50.413Z,98942.41
2023-02-16T04:52:20.085Z,98943.53
2023-02-16T04:54:50.285Z,98952.03
2023-02-16T04:57:22.829Z,98950.91
2023-02-16T04:59:52.315Z,98954.38
2023-02-16T05:02:24.804Z,98950.34
2023-02-16T05:04:54.639Z,98950.91
2023-02-16T05:07:25.278Z,98943.03
2023-02-16T05:09:55.423Z,98945.75
2023-02-16T05:12:44.414Z,98946.81
2023-02-16T05:15:14.691Z,98952.78
2023-02-16T05:17:45.174Z,98952.16
2023-02-16T05:20:15.437Z,98960.69
2023-02-16T05:22:46.993Z,98961.13
2023-02-16T05:25:17.928Z,98953.13
2023-02-16T05:27:48.167Z,98964.44
2023-02-16T05:30:18.978Z,98958.97
2023-02-16T05:32:48.941Z,98956.06
2023-02-16T05:35:18.036Z,98947.66
2023-02-16T05:37:47.588Z,98944.69
2023-02-16T05:40:16.522Z,98953.00
2023-02-16T05:42:45.564Z,98953.38
2023-02-16T05:45:14.343Z,98948.84
2023-02-16T05:47:45.058Z,98949.81
2023-02-16T05:50:15.199Z,98943.28
2023-02-16T05:52:44.006Z,98940.78
2023-02-16T05:55:12.944Z,98948.78
2023-02-16T05:57:41.850Z,98939.25
2023-02-16T06:00:11.637Z,98939.94
2023-02-16T06:02:40.538Z,98937.84
2023-02-16T06:05:09.740Z,98932.88
2023-02-16T06:07:39.136Z,98928.03
2023-02-16T06:10:09.254Z,98929.34
2023-02-16T06:12:38.286Z,98933.13
2023-02-16T06:15:07.415Z,98930.00
2023-02-16T06:17:36.183Z,98925.19
2023-02-16T06:20:06.872Z,98921.25
2023-02-16T06:22:35.907Z,98919.66
2023-02-16T06:25:04.842Z,98915.69
2023-02-16T06:27:33.973Z,98925.78
2023-02-16T06:30:03.758Z,98915.69
2023-02-16T06:32:34.506Z,98912.88
2023-02-16T06:35:03.837Z,98913.72
2023-02-16T06:37:32.497Z,98913.09
2023-02-16T06:40:01.546Z,98909.84
2023-02-16T06:42:30.374Z,98912.03
2023-02-16T06:44:59.367Z,98904.41
2023-02-16T06:47:28.277Z,98901.50
2023-02-16T06:49:57.748Z,98910.50
2023-02-16T06:52:26.805Z,98907.03
2023-02-16T06:54:55.993Z,98905.81
2023-02-16T06:57:24.809Z,98906.16
2023-02-16T06:59:53.965Z,98895.22
2023-02-16T07:02:22.777Z,98894.31
2023-02-16T09:06:45.580Z,98731.97
2023-02-16T09:09:15.366Z,98735.16
2023-02-16T09:11:44.534Z,98733.84
2023-02-16T09:14:13.614Z,98734.78
2023-02-16T09:16:46.525Z,98730.75
2023-02-16T09:19:21.555Z,98730.88
2023-02-16T09:21:57.172Z,98724.38
2023-02-16T09:24:27.897Z,98733.19
2023-02-16T09:26:57.891Z,98722.91
2023-02-16T09:29:26.830Z,98725.97
2023-02-16T09:31:56.722Z,98728.59
2023-02-16T09:34:27.755Z,98725.97
2023-02-16T09:36:57.562Z,98730.50
2023-02-16T09:39:27.165Z,98724.75
2023-02-16T09:42:12.048Z,98723.16
2023-02-16T09:45:02.360Z,98732.00
2023-02-16T09:47:34.871Z,98726.91
2023-02-16T09:50:38.237Z,98724.13
2023-02-16T09:53:19.985Z,98721.47
2023-02-16T09:55:55.428Z,98719.38
2023-02-16T09:58:32.161Z,98722.72
2023-02-16T10:01:25.222Z,98705.56
2023-02-16T10:04:13.176Z,98710.69
2023-02-16T10:07:04.708Z,98710.16
2023-02-16T10:09:36.042Z,98707.19
2023-02-16T10:12:10.697Z,98708.06
2023-02-16T10:14:57.664Z,98713.38
2023-02-16T10:17:38.833Z,98709.59
2023-02-16T10:20:24.240Z,98713.75
2023-02-16T10:23:02.527Z,98716.81
2023-02-16T10:25:57.489Z,98712.31
2023-02-16T10:28:51.592Z,98708.94
2023-02-16T10:31:24.576Z,98699.34
2023-02-16T10:34:02.638Z,98696.34
2023-02-16T10:36:43.358Z,98700.13
2023-02-16T10:39:26.621Z,98691.50
2023-02-16T10:42:14.516Z,98703.00
2023-02-16T10:44:50.161Z,98698.97
2023-02-16T10:47:25.576Z,98707.38
2023-02-16T10:49:54.763Z,98698.94
2023-02-16T10:52:24.542Z,98697.41
2023-02-16T10:54:53.951Z,98684.53
2023-02-16T10:57:32.278Z,98686.56
2023-02-16T11:00:08.041Z,98690.63
2023-02-16T11:02:45.742Z,98675.88
2023-02-16T11:05:37.242Z,98682.94
2023-02-16T11:08:09.150Z,98676.41
2023-02-16T11:10:55.570Z,98686.06
2023-02-16T11:13:34.870Z,98686.22
2023-02-16T11:16:21.858Z,98681.28
2023-02-16T11:19:02.932Z,98680.97
2023-02-16T11:21:50.069Z,98676.22
2023-02-16T11:24:39.535Z,98672.50
2023-02-16T11:27:20.881Z,98676.56
2023-02-16T11:29:51.689Z,98686.63
2023-02-16T11:32:25.068Z,98686.13
2023-02-16T11:34:55.076Z,98681.28
2023-02-16T11:37:30.153Z,98686.06
2023-02-16T11:40:03.875Z,98687.22
2023-02-16T11:42:44.937Z,98680.94
2023-02-16T11:45:35.530Z,98686.19
2023-02-16T11:48:13.635Z,98686.25
2023-02-16T11:50:58.940Z,98684.34
2023-02-16T11:53:33.862Z,98677.88
2023-02-16T11:56:29.776Z,98685.28
2023-02-16T11:59:16.725Z,98681.28
2023-02-16T12:02:14.454Z,98687.06
2023-02-16T12:04:46.755Z,98685.06
2023-02-16T12:07:42.216Z,98681.50
2023-02-16T12:10:13.901Z,98685.84
2023-02-16T12:13:04.872Z,98684.56
2023-02-16T12:15:59.712Z,98691.44
2023-02-16T12:18:43.317Z,98692.72
2023-02-16T12:21:24.854Z,98684.59
2023-02-16T12:24:13.787Z,98688.91
2023-02-16T12:26:53.128Z,98695.53
2023-02-16T12:29:48.709Z,98696.31
2023-02-16T12:32:49.350Z,98709.00
2023-02-16T12:35:35.485Z,98707.09
2023-02-16T12:38:43.460Z,98704.13
2023-02-16T12:41:12.387Z,98693.50
2023-02-16T12:43:53.321Z,98693.72
2023-02-16T12:46:31.527Z,98698.03
2023-02-16T17:21:50.420Z,98870.97
2023-02-16T17:24:19.641Z,98877.38
2023-02-16T17:26:48.360Z,98877.44
2023-02-16T17:29:17.181Z,98883.56
2023-02-16T17:31:46.001Z,98887.03
2023-02-16T17:34:15.336Z,98883.56
2023-02-16T17:36:44.132Z,98878.38
2023-02-16T17:39:13.079Z,98881.94
2023-02-16T17:41:41.813Z,98877.69
2023-02-16T17:44:11.008Z,98884.63
2023-02-16T17:46:40.481Z,98880.47
2023-02-16T17:49:12.448Z,98883.75
2023-02-16T17:51:41.958Z,98890.06
2023-02-16T17:54:10.811Z,98881.59
2023-02-16T17:56:40.889Z,98895.38
2023-02-16T17:59:11.733Z,98889.41
2023-02-16T18:01:40.617Z,98884.28
2023-02-16T18:04:09.691Z,98891.97
2023-02-16T18:06:38.977Z,98899.78
2023-02-16T18:09:08.659Z,98902.53
2023-02-16T18:11:37.544Z,98899.19
2023-02-16T18:14:06.322Z,98901.06
2023-02-16T18:16:35.362Z,98900.03
2023-02-16T18:19:05.344Z,98901.00
2023-02-16T18:21:34.424Z,98905.38
2023-02-16T18:24:03.167Z,98908.94
2023-02-16T18:26:34.572Z,98902.09
2023-02-16T18:29:03.768Z,98906.50
2023-02-16T18:31:32.769Z,98898.72
2023-02-16T18:34:01.894Z,98902.19
2023-02-16T18:36:30.621Z,98903.97
2023-02-16T18:38:59.700Z,98905.75
2023-02-16T18:41:28.415Z,98898.19
2023-02-16T18:43:57.267Z,98902.78
2023-02-16T18:46:26.158Z,98911.63
2023-02-16T18:48:55.178Z,98909.19
2023-02-16T18:51:26.786Z,98910.00
2023-02-16T18:53:56.253Z,98916.88
2023-02-16T18:56:25.273Z,98916.00
2023-02-16T18:58:54.774Z,98915.06
2023-02-16T19:01:31.330Z,98918.81
2023-02-16T19:04:02.230Z,98927.75
2023-02-16T19:06:31.508Z,98922.63
2023-02-16T19:09:00.853Z,98920.94
2023-02-16T19:11:31.670Z,98927.03
2023-02-16T19:14:00.847Z,98928.66
2023-02-16T19:16:29.734Z,98925.22
2023-02-16T19:18:58.892Z,98921.69
2023-02-16T19:21:27.672Z,98923.53
2023-02-16T19:23:56.778Z,98925.38
2023-02-16T19:26:25.573Z,98930.56
2023-02-16T19:28:54.965Z,98935.75
2023-02-16T19:31:32.253Z,98935.56
2023-02-16T19:34:01.636Z,98937.78
2023-02-16T19:36:31.694Z,98936.06
2023-02-16T19:39:01.101Z,98930.06
2023-02-16T19:41:32.733Z,98929.91
2023-02-16T19:44:01.816Z,98924.16
2023-02-16T19:46:32.434Z,98938.88
2023-02-16T19:49:02.253Z,98946.59
2023-02-16T19:51:31.066Z,98936.44
2023-02-16T19:54:00.690Z,98941.75
2023-02-16T19:56:29.506Z,98927.19
2023-02-16T19:59:01.011Z,98920.22
2023-02-16T20:01:30.597Z,98925.53
2023-02-16T20:04:01.058Z,98918.69
2023-02-16T20:06:29.912Z,98923.09
2023-02-16T20:09:00.252Z,98915.25
2023-02-16T20:11:30.933Z,98913.53
2023-02-16T20:14:00.426Z,98909.38
2023-02-16T20:16:29.769Z,98914.56
2023-02-16T20:18:59.980Z,98917.19
2023-02-16T20:21:30.231Z,98922.22
2023-02-16T20:24:02.487Z,98922.22
2023-02-16T20:26:41.304Z,98923.03
2023-02-16T20:29:12.542Z,98917.25
2023-02-16T20:31:45.206Z,98911.91
2023-02-16T20:34:14.401Z,98917.31
2023-02-16T20:36:43.253Z,98918.25
2023-02-16T20:39:12.588Z,98920.03
2023-02-16T20:41:41.976Z,98915.78
2023-02-16T20:44:11.702Z,98921.78
2023-02-16T20:46:41.784Z,98918.31
2023-02-16T20:49:11.785Z,98913.13
2023-02-16T20:51:42.092Z,98917.59
2023-02-16T20:54:12.705Z,98920.13
2023-02-16T20:56:41.775Z,98908.19
2023-02-16T20:59:12.063Z,98909.03
2023-02-16T21:01:52.557Z,98914.13
2023-02-16T21:04:22.278Z,98921.19
2023-02-16T21:06:51.138Z,98916.88
2023-02-16T21:09:20.189Z,98914.50
2023-02-16T21:11:49.112Z,98910.31
2023-02-16T21:14:18.165Z,98895.69
2023-02-16T21:16:47.558Z,98898.28
2023-02-16T21:19:22.795Z,98899.13
2023-02-16T21:21:53.671Z,98901.59
2023-02-16T21:24:22.805Z,98890.56
2023-02-16T21:26:51.482Z,98895.72
2023-02-16T21:29:20.428Z,98891.50
2023-02-16T21:31:49.263Z,98883.66
2023-02-16T21:34:18.428Z,98882.81
2023-02-16T21:36:47.302Z,98885.44
2023-02-16T21:39:16.392Z,98885.59
2023-02-16T21:41:45.118Z,98888.13
2023-02-16T21:44:16.983Z,98885.41
2023-02-16T21:46:48.682Z,98876.00
2023-02-16T21:49:20.662Z,98880.28
2023-02-16T21:51:50.000Z,98879.59
2023-02-16T21:54:40.422Z,98875.22
2023-02-16T21:57:09.276Z,98866.75
2023-02-16T21:59:38.890Z,98866.81
2023-02-16T22:02:07.856Z,98862.50
2023-02-16T22:04:36.648Z,98857.34
2023-02-16T22:07:05.678Z,98847.00
2023-02-16T22:09:34.459Z,98835.94
2023-02-16T22:12:03.431Z,98831.75
2023-02-16T22:14:34.105Z,98836.84
2023-02-16T22:17:04.146Z,98845.56
2023-02-16T22:19:32.799Z,98842.09
2023-02-16T22:22:01.865Z,98842.25
2023-02-16T22:24:30.653Z,98827.69
2023-02-16T22:26:59.744Z,98836.34
2023-02-16T22:29:28.500Z,98829.50
2023-02-16T22:31:57.524Z,98825.16
2023-02-16T22:34:26.358Z,98823.47
2023-02-16T22:36:55.424Z,98819.25
2023-02-16T22:39:24.192Z,98814.19
2023-02-16T22:41:53.233Z,98809.09
2023-02-16T22:44:22.055Z,98804.88
2023-02-16T22:46:51.332Z,98812.81
2023-02-16T22:49:20.036Z,98813.78
2023-02-16T22:51:49.918Z,98802.47
2023-02-16T22:54:18.685Z,98800.84
2023-02-16T22:56:47.964Z,98804.31
2023-02-16T22:59:16.679Z,98803.38
2023-02-16T23:01:45.831Z,98806.84
2023-02-16T23:04:16.532Z,98813.63
2023-02-16T23:06:46.661Z,98808.56
2023-02-16T23:09:18.513Z,98806.50
2023-02-16T23:11:48.514Z,98805.00
2023-02-16T23:14:18.607Z,98812.72
2023-02-16T23:16:53.123Z,98808.09
2023-02-16T23:19:25.749Z,98800.41
2023-02-16T23:21:55.023Z,98806.06
2023-02-16T23:24:25.282Z,98804.75
2023-02-16T23:26:55.032Z,98809.09
2023-02-16T23:29:23.925Z,98804.72
2023-02-16T23:31:53.920Z,98808.06
2023-02-16T23:34:22.987Z,98803.00
2023-02-16T23:36:51.886Z,98810.00
2023-02-16T23:39:20.688Z,98811.03
2023-02-16T23:41:49.925Z,98821.38
2023-02-16T23:44:18.751Z,98822.34
2023-02-16T23:46:47.655Z,98820.63
2023-02-16T23:49:16.662Z,98827.47
2023-02-16T23:51:45.600Z,98821.44
2023-02-16T23:54:14.323Z,98818.75
2023-02-16T23:56:43.438Z,98826.44
2023-02-16T23:59:12.144Z,98832.47
